Minerva Astra — 9HDW7 — position and weather

sailwx.info

Track history (hours):
 
Tides and Currents Weather Stations Pressure Air Temp Water Temp Dewpoint Dewpoint Depression Visibility Wind Speed Wind Dir Waves Ship Positions

Minerva Astra

Last reported at 2014-Aug-27 12:30 UTC. Time now 2014-Aug-27 13:12 UTC.
Position N 39°49' E 010°40'.

Length 248 m; draft 10.2 m.

Type: Tanker. MMSI: 256703000.

Date/timePositionNaut miles runAvg speedWind from/ knotsBaromVisibWave heightAir tempDewpointWater temp
2014-Aug-27 12:30N 39°49' E 010°40'1312.6
2014-Aug-27 11:26N 39°35' E 010°44'5313.0
2014-Aug-27 07:19N 38°43' E 010°60'911.8
2014-Aug-27 06:33N 38°35' E 011°03'1511.2
2014-Aug-27 05:15N 38°20' E 011°07'811.2
2014-Aug-27 04:33N 38°13' E 011°09'3411.4
2014-Aug-27 01:34N 37°40' E 011°19'1311.5
2014-Aug-27 00:27N 37°27' E 011°21'9 9.8
2014-Aug-26 23:33N 37°19' E 011°27'1111.0
2014-Aug-26 22:34N 37°14' E 011°39'1110.8
2014-Aug-26 21:33N 37°09' E 011°51'1111.5
2014-Aug-26 20:33N 37°03' E 012°03'1312.6
2014-Aug-26 19:33N 36°57' E 012°17'1312.6
2014-Aug-26 18:33N 36°51' E 012°31'1312.8
2014-Aug-26 17:33N 36°46' E 012°46'1212.1
2014-Aug-26 16:33N 36°41' E 012°60'1211.7
2014-Aug-26 15:33N 36°36' E 013°13'1111.5
2014-Aug-26 14:33N 36°32' E 013°26'1010.5
2014-Aug-26 13:33N 36°27' E 013°38'1110.5
2014-Aug-26 12:33N 36°23' E 013°50'1110.7
2014-Aug-26 11:33N 36°19' E 014°02'1110.8
2014-Aug-26 10:33N 36°14' E 014°14'53711.9
2014-Aug-24 13:33N 32°20' E 023°60'  
2014-Aug-21 17:33N 35°25' E 023°21'1311.2
2014-Aug-21 16:22N 35°38' E 023°23'910.5
2014-Aug-21 15:31N 35°47' E 023°27'7 7.1
2014-Aug-21 14:33N 35°53' E 023°30'7 7.5
2014-Aug-21 13:33N 36°00' E 023°33'7 7.5
2014-Aug-21 12:33N 36°07' E 023°37'7 7.4
2014-Aug-21 11:33N 36°14' E 023°40'7 7.5
2014-Aug-21 10:33N 36°21' E 023°43'7 7.4
2014-Aug-21 09:33N 36°28' E 023°46'9 8.7
2014-Aug-21 08:33N 36°36' E 023°51'1010.3
2014-Aug-21 07:33N 36°45' E 023°56'8 7.7
2014-Aug-21 06:33N 36°52' E 023°60'7 7.5
2014-Aug-21 05:33N 36°59' E 024°03'7 7.3
2014-Aug-21 04:33N 37°06' E 024°06'8 7.5
2014-Aug-21 03:28N 37°14' E 024°10'7 7.4
2014-Aug-21 02:33N 37°20' E 024°13'7 7.4
2014-Aug-21 01:33N 37°27' E 024°17'8 7.8
2014-Aug-21 00:33N 37°33' E 024°23'7 7.3
2014-Aug-20 23:32N 37°39' E 024°28'9 8.1
2014-Aug-20 22:29N 37°47' E 024°31'7 8.0
2014-Aug-20 21:33N 37°54' E 024°34'6212.4
2014-Aug-20 16:33N 38°50' E 025°09'1110.6
2014-Aug-20 15:33N 38°60' E 025°14'8 7.8
2014-Aug-20 14:33N 39°07' E 025°19'8 7.8
2014-Aug-20 13:33N 39°14' E 025°23'8 7.8
2014-Aug-20 12:33N 39°21' E 025°28'8 7.8
2014-Aug-20 11:33N 39°28' E 025°32'8 7.6
2014-Aug-20 10:33N 39°35' E 025°35'8 7.8
2014-Aug-20 09:33N 39°42' E 025°40'16 8.1
2014-Aug-20 07:33N 39°55' E 025°52'9 8.5
2014-Aug-20 06:31N 40°01' E 026°01'4811.7
2014-Aug-20 02:23N 40°29' E 026°52'83 4.6
2014-Aug-19 08:23N 40°53' E 028°36'1011.0
2014-Aug-19 07:31N 40°55' E 028°48'8 8.1
2014-Aug-19 06:32N 40°58' E 028°58'1110.0
2014-Aug-19 05:24N 41°09' E 029°04'  
Track history (hours):
 
Tides and Currents Weather Stations Pressure Air Temp Water Temp Dewpoint Dewpoint Depression Visibility Wind Speed Wind Dir Waves Ship Positions

Minerva Astra

Last reported at 2014-Aug-27 12:30 UTC. Time now 2014-Aug-27 13:12 UTC.
Position N 39°49' E 010°40'.

Length 248 m; draft 10.2 m.

Type: Tanker. MMSI: 256703000.

Date/timePositionNaut miles runAvg speedWind from/ knotsBaromVisibWave heightAir tempDewpointWater temp
2014-Aug-27 12:30N 39°49' E 010°40'1312.6
2014-Aug-27 11:26N 39°35' E 010°44'5313.0
2014-Aug-27 07:19N 38°43' E 010°60'911.8
2014-Aug-27 06:33N 38°35' E 011°03'1511.2
2014-Aug-27 05:15N 38°20' E 011°07'811.2
2014-Aug-27 04:33N 38°13' E 011°09'3411.4
2014-Aug-27 01:34N 37°40' E 011°19'1311.5
2014-Aug-27 00:27N 37°27' E 011°21'9 9.8
2014-Aug-26 23:33N 37°19' E 011°27'1111.0
2014-Aug-26 22:34N 37°14' E 011°39'1110.8
2014-Aug-26 21:33N 37°09' E 011°51'1111.5
2014-Aug-26 20:33N 37°03' E 012°03'1312.6
2014-Aug-26 19:33N 36°57' E 012°17'1312.6
2014-Aug-26 18:33N 36°51' E 012°31'1312.8
2014-Aug-26 17:33N 36°46' E 012°46'1212.1
2014-Aug-26 16:33N 36°41' E 012°60'1211.7
2014-Aug-26 15:33N 36°36' E 013°13'1111.5
2014-Aug-26 14:33N 36°32' E 013°26'1010.5
2014-Aug-26 13:33N 36°27' E 013°38'1110.5
2014-Aug-26 12:33N 36°23' E 013°50'1110.7
2014-Aug-26 11:33N 36°19' E 014°02'1110.8
2014-Aug-26 10:33N 36°14' E 014°14'53711.9
2014-Aug-24 13:33N 32°20' E 023°60'  
2014-Aug-21 17:33N 35°25' E 023°21'1311.2
2014-Aug-21 16:22N 35°38' E 023°23'910.5
2014-Aug-21 15:31N 35°47' E 023°27'7 7.1
2014-Aug-21 14:33N 35°53' E 023°30'7 7.5
2014-Aug-21 13:33N 36°00' E 023°33'7 7.5
2014-Aug-21 12:33N 36°07' E 023°37'7 7.4
2014-Aug-21 11:33N 36°14' E 023°40'7 7.5
2014-Aug-21 10:33N 36°21' E 023°43'7 7.4
2014-Aug-21 09:33N 36°28' E 023°46'9 8.7
2014-Aug-21 08:33N 36°36' E 023°51'1010.3
2014-Aug-21 07:33N 36°45' E 023°56'8 7.7
2014-Aug-21 06:33N 36°52' E 023°60'7 7.5
2014-Aug-21 05:33N 36°59' E 024°03'7 7.3
2014-Aug-21 04:33N 37°06' E 024°06'8 7.5
2014-Aug-21 03:28N 37°14' E 024°10'7 7.4
2014-Aug-21 02:33N 37°20' E 024°13'7 7.4
2014-Aug-21 01:33N 37°27' E 024°17'8 7.8
2014-Aug-21 00:33N 37°33' E 024°23'7 7.3
2014-Aug-20 23:32N 37°39' E 024°28'9 8.1
2014-Aug-20 22:29N 37°47' E 024°31'7 8.0
2014-Aug-20 21:33N 37°54' E 024°34'6212.4
2014-Aug-20 16:33N 38°50' E 025°09'1110.6
2014-Aug-20 15:33N 38°60' E 025°14'8 7.8
2014-Aug-20 14:33N 39°07' E 025°19'8 7.8
2014-Aug-20 13:33N 39°14' E 025°23'8 7.8
2014-Aug-20 12:33N 39°21' E 025°28'8 7.8
2014-Aug-20 11:33N 39°28' E 025°32'8 7.6
2014-Aug-20 10:33N 39°35' E 025°35'8 7.8
2014-Aug-20 09:33N 39°42' E 025°40'16 8.1
2014-Aug-20 07:33N 39°55' E 025°52'9 8.5
2014-Aug-20 06:31N 40°01' E 026°01'4811.7
2014-Aug-20 02:23N 40°29' E 026°52'83 4.6
2014-Aug-19 08:23N 40°53' E 028°36'1011.0
2014-Aug-19 07:31N 40°55' E 028°48'8 8.1
2014-Aug-19 06:32N 40°58' E 028°58'1110.0
2014-Aug-19 05:24N 41°09' E 029°04'  

Dump ship's entire track history